sensor_id;sensor_type;location;lat;lon;timestamp;temperature;humidity
2571;DHT22;1295;51.130;6.732;2023-02-01T00:01:09;6.10;99.90
2571;DHT22;1295;51.130;6.732;2023-02-01T00:03:34;6.10;99.90
2571;DHT22;1295;51.130;6.732;2023-02-01T00:06:00;6.20;99.90
2571;DHT22;1295;51.130;6.732;2023-02-01T00:08:26;6.20;99.90
2571;DHT22;1295;51.130;6.732;2023-02-01T00:11:00;6.10;99.90
2571;DHT22;1295;51.130;6.732;2023-02-01T00:13:31;6.10;99.90
2571;DHT22;1295;51.130;6.732;2023-02-01T00:16:01;6.10;99.90
2571;DHT22;1295;51.130;6.732;2023-02-01T00:18:21;6.10;99.90
2571;DHT22;1295;51.130;6.732;2023-02-01T00:20:46;6.10;99.90
2571;DHT22;1295;51.130;6.732;2023-02-01T00:23:12;6.10;99.90
2571;DHT22;1295;51.130;6.732;2023-02-01T00:25:38;6.10;99.90
2571;DHT22;1295;51.130;6.732;2023-02-01T00:28:03;6.10;99.90
2571;DHT22;1295;51.130;6.732;2023-02-01T00:30:29;6.10;99.90
2571;DHT22;1295;51.130;6.732;2023-02-01T00:33:00;6.10;99.90
2571;DHT22;1295;51.130;6.732;2023-02-01T00:35:36;6.10;99.90
2571;DHT22;1295;51.130;6.732;2023-02-01T00:38:02;6.10;99.90
2571;DHT22;1295;51.130;6.732;2023-02-01T00:40:28;6.10;99.90
2571;DHT22;1295;51.130;6.732;2023-02-01T00:42:54;6.10;99.90
2571;DHT22;1295;51.130;6.732;2023-02-01T00:45:19;6.10;99.90
2571;DHT22;1295;51.130;6.732;2023-02-01T00:47:45;6.00;99.90
2571;DHT22;1295;51.130;6.732;2023-02-01T00:50:10;6.00;99.90
2571;DHT22;1295;51.130;6.732;2023-02-01T00:52:36;6.00;99.90
2571;DHT22;1295;51.130;6.732;2023-02-01T00:55:02;5.90;99.90
2571;DHT22;1295;51.130;6.732;2023-02-01T00:57:27;5.90;99.90
2571;DHT22;1295;51.130;6.732;2023-02-01T00:59:53;5.90;99.90
2571;DHT22;1295;51.130;6.732;2023-02-01T01:02:19;5.90;99.90
2571;DHT22;1295;51.130;6.732;2023-02-01T01:04:44;5.90;99.90
2571;DHT22;1295;51.130;6.732;2023-02-01T01:07:10;5.90;99.90
2571;DHT22;1295;51.130;6.732;2023-02-01T01:09:36;6.00;99.90
2571;DHT22;1295;51.130;6.732;2023-02-01T01:12:02;6.00;99.90
2571;DHT22;1295;51.130;6.732;2023-02-01T01:14:28;5.90;99.90
2571;DHT22;1295;51.130;6.732;2023-02-01T01:16:53;5.80;99.90
2571;DHT22;1295;51.130;6.732;2023-02-01T01:19:19;5.80;99.90
2571;DHT22;1295;51.130;6.732;2023-02-01T01:21:44;5.80;99.90
2571;DHT22;1295;51.130;6.732;2023-02-01T01:24:10;5.90;99.90
2571;DHT22;1295;51.130;6.732;2023-02-01T01:26:36;5.80;99.90
2571;DHT22;1295;51.130;6.732;2023-02-01T01:29:01;5.80;99.90
2571;DHT22;1295;51.130;6.732;2023-02-01T01:31:27;5.90;99.90
2571;DHT22;1295;51.130;6.732;2023-02-01T01:33:53;5.70;99.90
2571;DHT22;1295;51.130;6.732;2023-02-01T01:36:18;5.70;99.90
2571;DHT22;1295;51.130;6.732;2023-02-01T01:38:44;5.80;99.90
2571;DHT22;1295;51.130;6.732;2023-02-01T01:41:12;5.80;99.90
2571;DHT22;1295;51.130;6.732;2023-02-01T01:43:46;5.70;99.90
2571;DHT22;1295;51.130;6.732;2023-02-01T01:46:14;5.90;99.90
2571;DHT22;1295;51.130;6.732;2023-02-01T01:48:36;5.80;99.90
2571;DHT22;1295;51.130;6.732;2023-02-01T01:51:04;5.70;99.90
2571;DHT22;1295;51.130;6.732;2023-02-01T01:53:33;5.60;99.90
2571;DHT22;1295;51.130;6.732;2023-02-01T01:55:57;5.50;99.90
2571;DHT22;1295;51.130;6.732;2023-02-01T01:58:24;5.60;99.90
2571;DHT22;1295;51.130;6.732;2023-02-01T02:00:49;5.50;99.90
2571;DHT22;1295;51.130;6.732;2023-02-01T02:03:21;5.60;99.90
2571;DHT22;1295;51.130;6.732;2023-02-01T02:05:46;5.60;99.90
2571;DHT22;1295;51.130;6.732;2023-02-01T02:08:12;5.60;99.90
2571;DHT22;1295;51.130;6.732;2023-02-01T02:10:37;5.60;99.90
2571;DHT22;1295;51.130;6.732;2023-02-01T02:13:09;5.70;99.90
2571;DHT22;1295;51.130;6.732;2023-02-01T02:15:36;5.70;99.90
2571;DHT22;1295;51.130;6.732;2023-02-01T02:18:02;5.60;99.90
2571;DHT22;1295;51.130;6.732;2023-02-01T02:20:38;5.60;99.90
2571;DHT22;1295;51.130;6.732;2023-02-01T02:23:31;5.60;99.90
2571;DHT22;1295;51.130;6.732;2023-02-01T02:26:04;5.60;99.90
2571;DHT22;1295;51.130;6.732;2023-02-01T02:33:52;5.70;99.90
2571;DHT22;1295;51.130;6.732;2023-02-01T02:37:28;5.60;99.90
2571;DHT22;1295;51.130;6.732;2023-02-01T02:39:05;5.50;99.90
2571;DHT22;1295;51.130;6.732;2023-02-01T02:41:33;5.70;99.90
2571;DHT22;1295;51.130;6.732;2023-02-01T02:44:16;5.70;99.90
2571;DHT22;1295;51.130;6.732;2023-02-01T02:46:47;5.70;99.90
2571;DHT22;1295;51.130;6.732;2023-02-01T02:49:20;5.70;99.90
2571;DHT22;1295;51.130;6.732;2023-02-01T02:51:49;5.70;99.90
2571;DHT22;1295;51.130;6.732;2023-02-01T02:54:23;5.60;99.90
2571;DHT22;1295;51.130;6.732;2023-02-01T02:56:54;5.70;99.90
2571;DHT22;1295;51.130;6.732;2023-02-01T02:59:26;5.70;99.90
2571;DHT22;1295;51.130;6.732;2023-02-01T03:01:57;5.60;99.90
2571;DHT22;1295;51.130;6.732;2023-02-01T03:04:29;5.60;99.90
2571;DHT22;1295;51.130;6.732;2023-02-01T03:06:54;5.70;99.90
2571;DHT22;1295;51.130;6.732;2023-02-01T03:09:27;5.70;99.90
2571;DHT22;1295;51.130;6.732;2023-02-01T03:11:52;5.70;99.90
2571;DHT22;1295;51.130;6.732;2023-02-01T03:14:23;5.50;99.90
2571;DHT22;1295;51.130;6.732;2023-02-01T03:16:50;5.50;99.90
2571;DHT22;1295;51.130;6.732;2023-02-01T03:19:19;5.70;99.90
2571;DHT22;1295;51.130;6.732;2023-02-01T03:21:56;5.60;99.90
2571;DHT22;1295;51.130;6.732;2023-02-01T03:24:25;5.50;99.90
2571;DHT22;1295;51.130;6.732;2023-02-01T03:26:52;5.50;99.90
2571;DHT22;1295;51.130;6.732;2023-02-01T03:29:18;5.50;99.90
2571;DHT22;1295;51.130;6.732;2023-02-01T03:31:43;5.60;99.90
2571;DHT22;1295;51.130;6.732;2023-02-01T03:34:10;5.70;99.90
2571;DHT22;1295;51.130;6.732;2023-02-01T03:36:38;5.60;99.90
2571;DHT22;1295;51.130;6.732;2023-02-01T03:41:37;5.60;99.90
2571;DHT22;1295;51.130;6.732;2023-02-01T03:44:04;5.60;99.90
2571;DHT22;1295;51.130;6.732;2023-02-01T03:46:35;5.70;99.90
2571;DHT22;1295;51.130;6.732;2023-02-01T03:49:02;5.70;99.90
2571;DHT22;1295;51.130;6.732;2023-02-01T03:51:27;5.60;99.90
2571;DHT22;1295;51.130;6.732;2023-02-01T03:53:52;5.70;99.90
2571;DHT22;1295;51.130;6.732;2023-02-01T03:56:18;5.70;99.90
2571;DHT22;1295;51.130;6.732;2023-02-01T03:58:44;5.60;99.90
2571;DHT22;1295;51.130;6.732;2023-02-01T04:01:09;5.60;99.90
2571;DHT22;1295;51.130;6.732;2023-02-01T04:03:35;5.70;99.90
2571;DHT22;1295;51.130;6.732;2023-02-01T04:06:01;5.70;99.90
2571;DHT22;1295;51.130;6.732;2023-02-01T04:08:28;5.80;99.90
2571;DHT22;1295;51.130;6.732;2023-02-01T04:10:53;5.70;99.90
2571;DHT22;1295;51.130;6.732;2023-02-01T04:13:19;5.80;99.90
2571;DHT22;1295;51.130;6.732;2023-02-01T04:15:46;5.80;99.90
2571;DHT22;1295;51.130;6.732;2023-02-01T04:18:11;5.80;99.90
2571;DHT22;1295;51.130;6.732;2023-02-01T04:20:36;5.80;99.90
2571;DHT22;1295;51.130;6.732;2023-02-01T04:23:02;5.80;99.90
2571;DHT22;1295;51.130;6.732;2023-02-01T04:25:29;5.70;99.90
2571;DHT22;1295;51.130;6.732;2023-02-01T04:27:53;5.80;99.90
2571;DHT22;1295;51.130;6.732;2023-02-01T04:30:19;5.70;99.90
2571;DHT22;1295;51.130;6.732;2023-02-01T04:32:45;5.70;99.90
2571;DHT22;1295;51.130;6.732;2023-02-01T04:35:10;5.70;99.90
2571;DHT22;1295;51.130;6.732;2023-02-01T04:37:36;5.70;99.90
2571;DHT22;1295;51.130;6.732;2023-02-01T04:40:02;5.60;99.90
2571;DHT22;1295;51.130;6.732;2023-02-01T04:42:28;5.60;99.90
2571;DHT22;1295;51.130;6.732;2023-02-01T04:44:55;5.60;99.90
2571;DHT22;1295;51.130;6.732;2023-02-01T04:47:21;5.60;99.90
2571;DHT22;1295;51.130;6.732;2023-02-01T04:49:47;5.60;99.90
2571;DHT22;1295;51.130;6.732;2023-02-01T04:52:12;5.70;99.90
2571;DHT22;1295;51.130;6.732;2023-02-01T04:54:38;5.50;99.90
2571;DHT22;1295;51.130;6.732;2023-02-01T04:57:04;5.60;99.90
2571;DHT22;1295;51.130;6.732;2023-02-01T04:59:29;5.70;99.90
2571;DHT22;1295;51.130;6.732;2023-02-01T05:02:01;5.60;99.90
2571;DHT22;1295;51.130;6.732;2023-02-01T05:04:37;5.60;99.90
2571;DHT22;1295;51.130;6.732;2023-02-01T05:07:02;5.60;99.90
2571;DHT22;1295;51.130;6.732;2023-02-01T05:09:28;5.50;99.90
2571;DHT22;1295;51.130;6.732;2023-02-01T05:11:54;5.50;99.90
2571;DHT22;1295;51.130;6.732;2023-02-01T05:14:26;5.50;99.90
2571;DHT22;1295;51.130;6.732;2023-02-01T05:16:53;5.60;99.90
2571;DHT22;1295;51.130;6.732;2023-02-01T05:19:18;5.60;99.90
2571;DHT22;1295;51.130;6.732;2023-02-01T05:21:44;5.50;99.90
2571;DHT22;1295;51.130;6.732;2023-02-01T05:24:10;5.60;99.90
2571;DHT22;1295;51.130;6.732;2023-02-01T05:26:37;5.50;99.90
2571;DHT22;1295;51.130;6.732;2023-02-01T05:29:02;5.40;99.90
2571;DHT22;1295;51.130;6.732;2023-02-01T05:31:27;5.50;99.90
2571;DHT22;1295;51.130;6.732;2023-02-01T05:33:53;5.50;99.90
2571;DHT22;1295;51.130;6.732;2023-02-01T05:36:19;5.60;99.90
2571;DHT22;1295;51.130;6.732;2023-02-01T05:38:44;5.50;99.90
2571;DHT22;1295;51.130;6.732;2023-02-01T05:41:10;5.50;99.90
2571;DHT22;1295;51.130;6.732;2023-02-01T05:43:36;5.50;99.90
2571;DHT22;1295;51.130;6.732;2023-02-01T05:46:01;5.50;99.90
2571;DHT22;1295;51.130;6.732;2023-02-01T05:48:27;5.50;99.90
2571;DHT22;1295;51.130;6.732;2023-02-01T05:50:52;5.40;99.90
2571;DHT22;1295;51.130;6.732;2023-02-01T05:53:18;5.50;99.90
2571;DHT22;1295;51.130;6.732;2023-02-01T05:55:44;5.60;99.90
2571;DHT22;1295;51.130;6.732;2023-02-01T05:58:09;5.40;99.90
2571;DHT22;1295;51.130;6.732;2023-02-01T06:00:35;5.40;99.90
2571;DHT22;1295;51.130;6.732;2023-02-01T06:03:00;5.40;99.90
2571;DHT22;1295;51.130;6.732;2023-02-01T06:05:27;5.30;99.90
2571;DHT22;1295;51.130;6.732;2023-02-01T06:07:52;5.30;99.90
2571;DHT22;1295;51.130;6.732;2023-02-01T06:10:19;5.30;99.90
2571;DHT22;1295;51.130;6.732;2023-02-01T06:12:45;5.30;99.90
2571;DHT22;1295;51.130;6.732;2023-02-01T06:15:12;5.30;99.90
2571;DHT22;1295;51.130;6.732;2023-02-01T06:17:37;5.30;99.90
2571;DHT22;1295;51.130;6.732;2023-02-01T06:20:03;5.40;99.90
2571;DHT22;1295;51.130;6.732;2023-02-01T06:22:29;5.50;99.90
2571;DHT22;1295;51.130;6.732;2023-02-01T06:24:55;5.40;99.90
2571;DHT22;1295;51.130;6.732;2023-02-01T06:27:21;5.40;99.90
2571;DHT22;1295;51.130;6.732;2023-02-01T06:29:46;5.30;99.90
2571;DHT22;1295;51.130;6.732;2023-02-01T06:32:12;5.40;99.90
2571;DHT22;1295;51.130;6.732;2023-02-01T06:34:38;5.30;99.90
2571;DHT22;1295;51.130;6.732;2023-02-01T06:37:03;5.30;99.90
2571;DHT22;1295;51.130;6.732;2023-02-01T06:39:29;5.40;99.90
2571;DHT22;1295;51.130;6.732;2023-02-01T06:41:54;5.40;99.90
2571;DHT22;1295;51.130;6.732;2023-02-01T06:44:20;5.40;99.90
2571;DHT22;1295;51.130;6.732;2023-02-01T06:46:46;5.40;99.90
2571;DHT22;1295;51.130;6.732;2023-02-01T06:49:13;5.50;99.90
2571;DHT22;1295;51.130;6.732;2023-02-01T06:51:38;5.40;99.90
2571;DHT22;1295;51.130;6.732;2023-02-01T06:54:04;5.40;99.90
2571;DHT22;1295;51.130;6.732;2023-02-01T06:56:30;5.50;99.90
2571;DHT22;1295;51.130;6.732;2023-02-01T06:59:03;5.40;99.90
2571;DHT22;1295;51.130;6.732;2023-02-01T07:01:31;5.40;99.90
2571;DHT22;1295;51.130;6.732;2023-02-01T07:03:57;5.40;99.90
2571;DHT22;1295;51.130;6.732;2023-02-01T07:06:22;5.40;99.90
2571;DHT22;1295;51.130;6.732;2023-02-01T07:08:48;5.50;99.90
2571;DHT22;1295;51.130;6.732;2023-02-01T07:11:14;5.40;99.90
2571;DHT22;1295;51.130;6.732;2023-02-01T07:13:40;5.50;99.90
2571;DHT22;1295;51.130;6.732;2023-02-01T07:16:08;5.50;99.90
2571;DHT22;1295;51.130;6.732;2023-02-01T07:18:33;5.40;99.90
2571;DHT22;1295;51.130;6.732;2023-02-01T07:20:59;5.40;99.90
2571;DHT22;1295;51.130;6.732;2023-02-01T07:23:24;5.40;99.90
2571;DHT22;1295;51.130;6.732;2023-02-01T07:26:00;5.40;99.90
2571;DHT22;1295;51.130;6.732;2023-02-01T07:28:25;5.50;99.90
2571;DHT22;1295;51.130;6.732;2023-02-01T07:30:50;5.50;99.90
2571;DHT22;1295;51.130;6.732;2023-02-01T07:33:17;5.50;99.90
2571;DHT22;1295;51.130;6.732;2023-02-01T07:35:41;5.50;99.90
2571;DHT22;1295;51.130;6.732;2023-02-01T07:38:07;5.50;99.90
2571;DHT22;1295;51.130;6.732;2023-02-01T07:40:33;5.40;99.90
2571;DHT22;1295;51.130;6.732;2023-02-01T07:42:58;5.50;99.90
2571;DHT22;1295;51.130;6.732;2023-02-01T07:45:24;5.50;99.90
2571;DHT22;1295;51.130;6.732;2023-02-01T07:47:51;5.50;99.90
2571;DHT22;1295;51.130;6.732;2023-02-01T07:50:16;5.50;99.90
2571;DHT22;1295;51.130;6.732;2023-02-01T07:52:41;5.40;99.90
2571;DHT22;1295;51.130;6.732;2023-02-01T07:55:09;5.50;99.90
2571;DHT22;1295;51.130;6.732;2023-02-01T07:57:34;5.40;99.90
2571;DHT22;1295;51.130;6.732;2023-02-01T08:00:00;5.50;99.90
2571;DHT22;1295;51.130;6.732;2023-02-01T08:02:31;5.50;99.90
2571;DHT22;1295;51.130;6.732;2023-02-01T08:04:57;5.50;99.90
2571;DHT22;1295;51.130;6.732;2023-02-01T08:07:22;5.50;99.90
2571;DHT22;1295;51.130;6.732;2023-02-01T08:09:48;5.50;99.90
2571;DHT22;1295;51.130;6.732;2023-02-01T08:12:14;5.50;99.90
2571;DHT22;1295;51.130;6.732;2023-02-01T08:14:41;5.50;99.90
2571;DHT22;1295;51.130;6.732;2023-02-01T08:17:07;5.50;99.90
2571;DHT22;1295;51.130;6.732;2023-02-01T08:19:33;5.50;99.90
2571;DHT22;1295;51.130;6.732;2023-02-01T08:21:58;5.50;99.90
2571;DHT22;1295;51.130;6.732;2023-02-01T08:24:24;5.40;99.90
2571;DHT22;1295;51.130;6.732;2023-02-01T08:26:50;5.40;99.90
2571;DHT22;1295;51.130;6.732;2023-02-01T08:29:15;5.40;99.90
2571;DHT22;1295;51.130;6.732;2023-02-01T08:31:41;5.40;99.90
2571;DHT22;1295;51.130;6.732;2023-02-01T08:34:07;5.50;99.90
2571;DHT22;1295;51.130;6.732;2023-02-01T08:36:33;5.50;99.90
2571;DHT22;1295;51.130;6.732;2023-02-01T08:38:59;5.60;99.90
2571;DHT22;1295;51.130;6.732;2023-02-01T08:41:25;5.50;99.90
2571;DHT22;1295;51.130;6.732;2023-02-01T08:43:50;5.50;99.90
2571;DHT22;1295;51.130;6.732;2023-02-01T08:46:16;5.60;99.90
2571;DHT22;1295;51.130;6.732;2023-02-01T08:48:41;5.60;99.90
2571;DHT22;1295;51.130;6.732;2023-02-01T08:51:08;5.60;99.90
2571;DHT22;1295;51.130;6.732;2023-02-01T08:53:40;5.60;99.90
2571;DHT22;1295;51.130;6.732;2023-02-01T08:56:05;5.50;99.90
2571;DHT22;1295;51.130;6.732;2023-02-01T08:58:31;5.60;99.90
2571;DHT22;1295;51.130;6.732;2023-02-01T09:00:57;5.60;99.90
2571;DHT22;1295;51.130;6.732;2023-02-01T09:03:22;5.60;99.90
2571;DHT22;1295;51.130;6.732;2023-02-01T09:05:48;5.60;99.90
2571;DHT22;1295;51.130;6.732;2023-02-01T09:08:14;5.60;99.90
2571;DHT22;1295;51.130;6.732;2023-02-01T09:10:41;5.60;99.90
2571;DHT22;1295;51.130;6.732;2023-02-01T09:13:06;5.60;99.90
2571;DHT22;1295;51.130;6.732;2023-02-01T09:15:32;5.60;99.90
2571;DHT22;1295;51.130;6.732;2023-02-01T09:17:58;5.60;99.90
2571;DHT22;1295;51.130;6.732;2023-02-01T09:20:24;5.60;99.90
2571;DHT22;1295;51.130;6.732;2023-02-01T09:22:51;5.60;99.90
2571;DHT22;1295;51.130;6.732;2023-02-01T09:25:16;5.60;99.90
2571;DHT22;1295;51.130;6.732;2023-02-01T09:27:42;5.60;99.90
2571;DHT22;1295;51.130;6.732;2023-02-01T09:30:09;5.60;99.90
2571;DHT22;1295;51.130;6.732;2023-02-01T09:32:35;5.60;99.90
2571;DHT22;1295;51.130;6.732;2023-02-01T09:35:00;5.60;99.90
2571;DHT22;1295;51.130;6.732;2023-02-01T09:37:26;5.70;99.90
2571;DHT22;1295;51.130;6.732;2023-02-01T09:39:51;5.60;99.90
2571;DHT22;1295;51.130;6.732;2023-02-01T09:42:25;5.60;99.90
2571;DHT22;1295;51.130;6.732;2023-02-01T09:45:03;5.60;99.90
2571;DHT22;1295;51.130;6.732;2023-02-01T09:47:28;5.70;99.90
2571;DHT22;1295;51.130;6.732;2023-02-01T09:50:13;5.70;99.90
2571;DHT22;1295;51.130;6.732;2023-02-01T09:52:40;5.60;99.90
2571;DHT22;1295;51.130;6.732;2023-02-01T09:55:06;5.60;99.90
2571;DHT22;1295;51.130;6.732;2023-02-01T09:57:40;5.60;99.90
2571;DHT22;1295;51.130;6.732;2023-02-01T10:00:04;5.60;99.90
2571;DHT22;1295;51.130;6.732;2023-02-01T10:02:28;5.60;99.90
2571;DHT22;1295;51.130;6.732;2023-02-01T10:04:55;5.70;99.90
2571;DHT22;1295;51.130;6.732;2023-02-01T10:07:29;5.70;99.90
2571;DHT22;1295;51.130;6.732;2023-02-01T10:10:20;5.70;99.90
2571;DHT22;1295;51.130;6.732;2023-02-01T10:13:13;5.70;99.90
2571;DHT22;1295;51.130;6.732;2023-02-01T10:15:47;5.70;99.90
2571;DHT22;1295;51.130;6.732;2023-02-01T10:18:18;5.80;99.90
2571;DHT22;1295;51.130;6.732;2023-02-01T10:21:09;5.80;99.90
2571;DHT22;1295;51.130;6.732;2023-02-01T10:23:41;5.80;99.90
2571;DHT22;1295;51.130;6.732;2023-02-01T10:26:26;5.80;99.90
2571;DHT22;1295;51.130;6.732;2023-02-01T10:28:52;5.80;99.90
2571;DHT22;1295;51.130;6.732;2023-02-01T10:31:18;6.30;99.90
2571;DHT22;1295;51.130;6.732;2023-02-01T10:33:45;6.30;99.90
2571;DHT22;1295;51.130;6.732;2023-02-01T10:36:31;6.40;99.90
2571;DHT22;1295;51.130;6.732;2023-02-01T10:38:57;6.60;99.90
2571;DHT22;1295;51.130;6.732;2023-02-01T10:41:21;6.60;99.90
2571;DHT22;1295;51.130;6.732;2023-02-01T10:43:48;6.70;99.90
2571;DHT22;1295;51.130;6.732;2023-02-01T10:46:13;6.60;99.90
2571;DHT22;1295;51.130;6.732;2023-02-01T10:48:40;6.50;99.90
2571;DHT22;1295;51.130;6.732;2023-02-01T10:51:08;6.50;99.90
2571;DHT22;1295;51.130;6.732;2023-02-01T10:53:36;6.40;99.90
2571;DHT22;1295;51.130;6.732;2023-02-01T10:56:06;6.40;99.90
2571;DHT22;1295;51.130;6.732;2023-02-01T10:58:32;6.30;99.90
2571;DHT22;1295;51.130;6.732;2023-02-01T11:01:00;6.40;99.90
2571;DHT22;1295;51.130;6.732;2023-02-01T11:03:32;6.40;99.90
2571;DHT22;1295;51.130;6.732;2023-02-01T11:05:56;6.40;99.90
2571;DHT22;1295;51.130;6.732;2023-02-01T11:08:21;6.30;99.90
2571;DHT22;1295;51.130;6.732;2023-02-01T11:10:47;6.30;99.90
2571;DHT22;1295;51.130;6.732;2023-02-01T11:13:15;6.40;99.90
2571;DHT22;1295;51.130;6.732;2023-02-01T11:15:42;6.30;99.90
2571;DHT22;1295;51.130;6.732;2023-02-01T11:18:14;6.30;99.90
2571;DHT22;1295;51.130;6.732;2023-02-01T11:20:39;6.40;99.90
2571;DHT22;1295;51.130;6.732;2023-02-01T11:23:04;6.30;99.90
2571;DHT22;1295;51.130;6.732;2023-02-01T11:25:30;6.40;99.90
2571;DHT22;1295;51.130;6.732;2023-02-01T11:27:56;6.40;99.90
2571;DHT22;1295;51.130;6.732;2023-02-01T11:30:27;6.50;99.90
2571;DHT22;1295;51.130;6.732;2023-02-01T11:32:48;6.40;99.90
2571;DHT22;1295;51.130;6.732;2023-02-01T11:35:15;6.40;99.90
2571;DHT22;1295;51.130;6.732;2023-02-01T11:37:41;6.50;99.90
2571;DHT22;1295;51.130;6.732;2023-02-01T11:40:27;6.40;99.90
2571;DHT22;1295;51.130;6.732;2023-02-01T11:42:54;6.50;99.90
2571;DHT22;1295;51.130;6.732;2023-02-01T11:45:25;6.40;99.90
2571;DHT22;1295;51.130;6.732;2023-02-01T11:47:52;6.50;99.90
2571;DHT22;1295;51.130;6.732;2023-02-01T11:50:19;6.40;99.90
2571;DHT22;1295;51.130;6.732;2023-02-01T11:53:16;6.50;99.90
2571;DHT22;1295;51.130;6.732;2023-02-01T11:55:51;6.50;99.90
2571;DHT22;1295;51.130;6.732;2023-02-01T12:06:27;6.40;99.90
2571;DHT22;1295;51.130;6.732;2023-02-01T12:09:03;6.60;99.90
2571;DHT22;1295;51.130;6.732;2023-02-01T12:11:33;6.50;99.90
2571;DHT22;1295;51.130;6.732;2023-02-01T12:14:23;6.50;99.90
2571;DHT22;1295;51.130;6.732;2023-02-01T12:20:10;6.50;99.90
2571;DHT22;1295;51.130;6.732;2023-02-01T12:25:21;6.50;99.90
2571;DHT22;1295;51.130;6.732;2023-02-01T12:28:11;6.70;99.90
2571;DHT22;1295;51.130;6.732;2023-02-01T12:34:38;6.70;99.90
2571;DHT22;1295;51.130;6.732;2023-02-01T12:36:46;6.60;99.90
2571;DHT22;1295;51.130;6.732;2023-02-01T12:39:21;6.70;99.90
2571;DHT22;1295;51.130;6.732;2023-02-01T12:42:01;6.70;99.90
2571;DHT22;1295;51.130;6.732;2023-02-01T12:44:31;6.60;99.90
2571;DHT22;1295;51.130;6.732;2023-02-01T12:46:56;6.70;99.90
2571;DHT22;1295;51.130;6.732;2023-02-01T12:49:43;6.60;99.90
2571;DHT22;1295;51.130;6.732;2023-02-01T12:52:06;6.60;99.90
2571;DHT22;1295;51.130;6.732;2023-02-01T12:54:41;6.70;99.90
2571;DHT22;1295;51.130;6.732;2023-02-01T12:57:23;6.60;99.90
2571;DHT22;1295;51.130;6.732;2023-02-01T12:59:49;6.70;99.90
2571;DHT22;1295;51.130;6.732;2023-02-01T13:02:18;6.80;99.90
2571;DHT22;1295;51.130;6.732;2023-02-01T13:04:57;6.80;99.90
2571;DHT22;1295;51.130;6.732;2023-02-01T13:07:22;6.70;99.90
2571;DHT22;1295;51.130;6.732;2023-02-01T13:09:50;6.70;99.90
2571;DHT22;1295;51.130;6.732;2023-02-01T13:12:17;6.70;99.90
2571;DHT22;1295;51.130;6.732;2023-02-01T13:14:47;6.60;99.90
2571;DHT22;1295;51.130;6.732;2023-02-01T13:17:14;6.60;99.90
2571;DHT22;1295;51.130;6.732;2023-02-01T13:19:45;6.60;99.90
2571;DHT22;1295;51.130;6.732;2023-02-01T13:22:17;6.60;99.90
2571;DHT22;1295;51.130;6.732;2023-02-01T13:24:44;6.60;99.90
2571;DHT22;1295;51.130;6.732;2023-02-01T13:27:11;6.80;99.90
2571;DHT22;1295;51.130;6.732;2023-02-01T13:29:36;6.80;99.90
2571;DHT22;1295;51.130;6.732;2023-02-01T13:32:21;6.70;99.90
2571;DHT22;1295;51.130;6.732;2023-02-01T13:34:59;6.80;99.90
2571;DHT22;1295;51.130;6.732;2023-02-01T13:40:22;6.80;99.90
2571;DHT22;1295;51.130;6.732;2023-02-01T13:42:48;6.80;99.90
2571;DHT22;1295;51.130;6.732;2023-02-01T13:45:15;6.80;99.90
2571;DHT22;1295;51.130;6.732;2023-02-01T13:47:41;6.80;99.90
2571;DHT22;1295;51.130;6.732;2023-02-01T13:50:18;6.90;99.90
2571;DHT22;1295;51.130;6.732;2023-02-01T13:52:40;6.90;99.90
2571;DHT22;1295;51.130;6.732;2023-02-01T13:55:23;6.90;99.90
2571;DHT22;1295;51.130;6.732;2023-02-01T13:57:41;6.70;99.90
2571;DHT22;1295;51.130;6.732;2023-02-01T14:00:27;7.00;99.90
2571;DHT22;1295;51.130;6.732;2023-02-01T14:03:10;6.90;99.90
2571;DHT22;1295;51.130;6.732;2023-02-01T14:05:54;6.90;99.90
2571;DHT22;1295;51.130;6.732;2023-02-01T14:08:24;6.80;99.90
2571;DHT22;1295;51.130;6.732;2023-02-01T14:10:58;6.80;99.90
2571;DHT22;1295;51.130;6.732;2023-02-01T14:13:28;6.80;99.90
2571;DHT22;1295;51.130;6.732;2023-02-01T14:16:11;6.70;99.90
2571;DHT22;1295;51.130;6.732;2023-02-01T14:18:57;6.80;99.90
2571;DHT22;1295;51.130;6.732;2023-02-01T14:21:23;6.80;99.90
2571;DHT22;1295;51.130;6.732;2023-02-01T14:24:24;6.60;99.90
2571;DHT22;1295;51.130;6.732;2023-02-01T14:26:48;6.80;99.90
2571;DHT22;1295;51.130;6.732;2023-02-01T14:29:22;6.80;99.90
2571;DHT22;1295;51.130;6.732;2023-02-01T14:31:48;6.90;99.90
2571;DHT22;1295;51.130;6.732;2023-02-01T14:34:15;6.80;99.90
2571;DHT22;1295;51.130;6.732;2023-02-01T14:36:49;6.80;99.90
2571;DHT22;1295;51.130;6.732;2023-02-01T14:39:19;6.80;99.90
2571;DHT22;1295;51.130;6.732;2023-02-01T14:41:44;6.80;99.90
2571;DHT22;1295;51.130;6.732;2023-02-01T14:44:14;6.80;99.90
2571;DHT22;1295;51.130;6.732;2023-02-01T14:47:08;6.80;99.90
2571;DHT22;1295;51.130;6.732;2023-02-01T14:49:34;6.90;99.90
2571;DHT22;1295;51.130;6.732;2023-02-01T14:51:58;6.90;99.90
2571;DHT22;1295;51.130;6.732;2023-02-01T14:54:24;7.00;99.90
2571;DHT22;1295;51.130;6.732;2023-02-01T14:56:49;6.90;99.90
2571;DHT22;1295;51.130;6.732;2023-02-01T14:59:15;6.80;99.90
2571;DHT22;1295;51.130;6.732;2023-02-01T15:01:46;6.90;99.90
2571;DHT22;1295;51.130;6.732;2023-02-01T15:04:14;6.90;99.90
2571;DHT22;1295;51.130;6.732;2023-02-01T15:06:40;7.00;99.90
2571;DHT22;1295;51.130;6.732;2023-02-01T15:09:09;6.90;99.90
2571;DHT22;1295;51.130;6.732;2023-02-01T15:11:44;6.90;99.90
2571;DHT22;1295;51.130;6.732;2023-02-01T15:13:59;7.10;99.90
2571;DHT22;1295;51.130;6.732;2023-02-01T15:16:25;6.80;99.90
2571;DHT22;1295;51.130;6.732;2023-02-01T15:19:04;6.80;99.90
2571;DHT22;1295;51.130;6.732;2023-02-01T15:21:19;6.80;99.90
2571;DHT22;1295;51.130;6.732;2023-02-01T15:23:44;6.70;99.90
2571;DHT22;1295;51.130;6.732;2023-02-01T15:26:09;7.00;99.90
2571;DHT22;1295;51.130;6.732;2023-02-01T15:28:35;6.90;99.90
2571;DHT22;1295;51.130;6.732;2023-02-01T15:31:02;7.00;99.90
2571;DHT22;1295;51.130;6.732;2023-02-01T15:33:27;7.00;99.90
2571;DHT22;1295;51.130;6.732;2023-02-01T15:35:53;6.80;99.90
2571;DHT22;1295;51.130;6.732;2023-02-01T15:38:37;6.80;99.90
2571;DHT22;1295;51.130;6.732;2023-02-01T15:41:09;6.90;99.90
2571;DHT22;1295;51.130;6.732;2023-02-01T15:43:35;7.20;99.90
2571;DHT22;1295;51.130;6.732;2023-02-01T15:46:00;7.00;99.90
2571;DHT22;1295;51.130;6.732;2023-02-01T15:48:25;6.90;99.90
2571;DHT22;1295;51.130;6.732;2023-02-01T15:50:52;7.00;99.90
2571;DHT22;1295;51.130;6.732;2023-02-01T15:53:19;7.00;99.90
2571;DHT22;1295;51.130;6.732;2023-02-01T15:55:44;7.00;99.90
2571;DHT22;1295;51.130;6.732;2023-02-01T15:58:19;7.00;99.90
2571;DHT22;1295;51.130;6.732;2023-02-01T16:00:45;7.10;99.90
2571;DHT22;1295;51.130;6.732;2023-02-01T16:05:54;6.90;99.90
2571;DHT22;1295;51.130;6.732;2023-02-01T16:08:16;6.90;99.90
2571;DHT22;1295;51.130;6.732;2023-02-01T16:10:44;7.00;99.90
2571;DHT22;1295;51.130;6.732;2023-02-01T16:13:09;7.10;99.90
2571;DHT22;1295;51.130;6.732;2023-02-01T16:15:34;7.00;99.90
2571;DHT22;1295;51.130;6.732;2023-02-01T16:18:00;7.10;99.90
2571;DHT22;1295;51.130;6.732;2023-02-01T16:20:25;6.90;99.90
2571;DHT22;1295;51.130;6.732;2023-02-01T16:22:52;7.10;99.90
2571;DHT22;1295;51.130;6.732;2023-02-01T16:25:17;7.10;99.90
2571;DHT22;1295;51.130;6.732;2023-02-01T16:27:43;6.90;99.90
2571;DHT22;1295;51.130;6.732;2023-02-01T16:30:09;7.00;99.90
2571;DHT22;1295;51.130;6.732;2023-02-01T16:32:35;6.90;99.90
2571;DHT22;1295;51.130;6.732;2023-02-01T16:35:01;6.90;99.90
2571;DHT22;1295;51.130;6.732;2023-02-01T16:37:26;7.00;99.90
2571;DHT22;1295;51.130;6.732;2023-02-01T16:39:52;7.00;99.90
2571;DHT22;1295;51.130;6.732;2023-02-01T16:42:18;7.10;99.90
2571;DHT22;1295;51.130;6.732;2023-02-01T16:44:43;7.00;99.90
2571;DHT22;1295;51.130;6.732;2023-02-01T16:47:21;7.10;99.90
2571;DHT22;1295;51.130;6.732;2023-02-01T16:49:47;7.00;99.90
2571;DHT22;1295;51.130;6.732;2023-02-01T16:52:17;7.10;99.90
2571;DHT22;1295;51.130;6.732;2023-02-01T16:54:41;6.90;99.90